sensor_id;sensor_type;location;lat;lon;timestamp;temperature;humidity
30628;DHT22;17394;50.890;4.724;2023-03-23T00:00:46;12.80;99.90
30628;DHT22;17394;50.890;4.724;2023-03-23T00:03:12;12.80;99.90
30628;DHT22;17394;50.890;4.724;2023-03-23T00:05:38;12.90;99.90
30628;DHT22;17394;50.890;4.724;2023-03-23T00:08:06;12.90;99.90
30628;DHT22;17394;50.890;4.724;2023-03-23T00:10:36;12.90;99.90
30628;DHT22;17394;50.890;4.724;2023-03-23T00:13:02;13.00;99.90
30628;DHT22;17394;50.890;4.724;2023-03-23T00:15:28;13.00;99.90
30628;DHT22;17394;50.890;4.724;2023-03-23T00:18:01;13.00;99.90
30628;DHT22;17394;50.890;4.724;2023-03-23T00:20:30;13.00;99.90
30628;DHT22;17394;50.890;4.724;2023-03-23T00:23:02;13.00;99.90
30628;DHT22;17394;50.890;4.724;2023-03-23T00:25:29;13.00;99.90
30628;DHT22;17394;50.890;4.724;2023-03-23T00:27:55;13.00;99.90
30628;DHT22;17394;50.890;4.724;2023-03-23T00:30:21;13.00;99.90
30628;DHT22;17394;50.890;4.724;2023-03-23T00:32:47;13.00;99.90
30628;DHT22;17394;50.890;4.724;2023-03-23T00:35:13;13.00;99.90
30628;DHT22;17394;50.890;4.724;2023-03-23T00:37:39;12.90;99.90
30628;DHT22;17394;50.890;4.724;2023-03-23T00:40:05;12.90;99.90
30628;DHT22;17394;50.890;4.724;2023-03-23T00:42:35;12.90;99.90
30628;DHT22;17394;50.890;4.724;2023-03-23T00:45:02;13.00;99.90
30628;DHT22;17394;50.890;4.724;2023-03-23T00:47:29;12.90;99.90
30628;DHT22;17394;50.890;4.724;2023-03-23T00:49:55;13.00;99.90
30628;DHT22;17394;50.890;4.724;2023-03-23T00:52:21;13.00;99.90
30628;DHT22;17394;50.890;4.724;2023-03-23T00:54:47;12.90;99.90
30628;DHT22;17394;50.890;4.724;2023-03-23T00:57:13;12.90;99.90
30628;DHT22;17394;50.890;4.724;2023-03-23T00:59:39;12.90;99.90
30628;DHT22;17394;50.890;4.724;2023-03-23T01:02:04;12.90;99.90
30628;DHT22;17394;50.890;4.724;2023-03-23T01:04:30;12.90;99.90
30628;DHT22;17394;50.890;4.724;2023-03-23T01:06:56;13.00;99.90
30628;DHT22;17394;50.890;4.724;2023-03-23T01:09:22;13.00;99.90
30628;DHT22;17394;50.890;4.724;2023-03-23T01:11:49;13.00;99.90
30628;DHT22;17394;50.890;4.724;2023-03-23T01:14:16;13.00;99.90
30628;DHT22;17394;50.890;4.724;2023-03-23T01:16:42;13.00;99.90
30628;DHT22;17394;50.890;4.724;2023-03-23T01:19:08;13.00;99.90
30628;DHT22;17394;50.890;4.724;2023-03-23T01:21:33;13.00;99.90
30628;DHT22;17394;50.890;4.724;2023-03-23T01:23:59;13.00;99.90
30628;DHT22;17394;50.890;4.724;2023-03-23T01:26:25;13.00;99.90
30628;DHT22;17394;50.890;4.724;2023-03-23T01:28:51;13.10;99.90
30628;DHT22;17394;50.890;4.724;2023-03-23T01:31:18;13.10;99.90
30628;DHT22;17394;50.890;4.724;2023-03-23T01:33:45;13.10;99.90
30628;DHT22;17394;50.890;4.724;2023-03-23T01:36:12;13.10;99.90
30628;DHT22;17394;50.890;4.724;2023-03-23T01:38:38;13.00;99.90
30628;DHT22;17394;50.890;4.724;2023-03-23T01:41:04;13.00;99.90
30628;DHT22;17394;50.890;4.724;2023-03-23T01:43:30;13.00;99.90
30628;DHT22;17394;50.890;4.724;2023-03-23T01:45:56;13.00;99.90
30628;DHT22;17394;50.890;4.724;2023-03-23T01:48:23;13.00;99.90
30628;DHT22;17394;50.890;4.724;2023-03-23T01:50:52;13.00;99.90
30628;DHT22;17394;50.890;4.724;2023-03-23T01:53:19;13.00;99.90
30628;DHT22;17394;50.890;4.724;2023-03-23T01:55:45;13.00;99.90
30628;DHT22;17394;50.890;4.724;2023-03-23T01:58:17;13.00;99.90
30628;DHT22;17394;50.890;4.724;2023-03-23T02:00:43;12.90;99.90
30628;DHT22;17394;50.890;4.724;2023-03-23T02:03:09;13.00;99.90
30628;DHT22;17394;50.890;4.724;2023-03-23T02:05:37;12.90;99.90
30628;DHT22;17394;50.890;4.724;2023-03-23T02:08:03;12.90;99.90
30628;DHT22;17394;50.890;4.724;2023-03-23T02:10:31;12.90;99.90
30628;DHT22;17394;50.890;4.724;2023-03-23T02:12:57;12.90;99.90
30628;DHT22;17394;50.890;4.724;2023-03-23T02:15:25;12.90;99.90
30628;DHT22;17394;50.890;4.724;2023-03-23T02:26:01;13.00;99.90
30628;DHT22;17394;50.890;4.724;2023-03-23T02:36:34;13.00;99.90
30628;DHT22;17394;50.890;4.724;2023-03-23T02:39:06;13.00;99.90
30628;DHT22;17394;50.890;4.724;2023-03-23T02:41:45;13.00;99.90
30628;DHT22;17394;50.890;4.724;2023-03-23T02:44:12;13.00;99.90
30628;DHT22;17394;50.890;4.724;2023-03-23T02:46:39;12.90;99.90
30628;DHT22;17394;50.890;4.724;2023-03-23T02:49:05;12.90;99.90
30628;DHT22;17394;50.890;4.724;2023-03-23T02:51:33;12.90;99.90
30628;DHT22;17394;50.890;4.724;2023-03-23T02:54:00;12.90;99.90
30628;DHT22;17394;50.890;4.724;2023-03-23T02:56:26;13.00;99.90
30628;DHT22;17394;50.890;4.724;2023-03-23T02:58:53;13.00;99.90
30628;DHT22;17394;50.890;4.724;2023-03-23T03:03:51;12.90;99.90
30628;DHT22;17394;50.890;4.724;2023-03-23T03:06:22;12.90;99.90
30628;DHT22;17394;50.890;4.724;2023-03-23T03:11:23;12.80;99.90
30628;DHT22;17394;50.890;4.724;2023-03-23T03:14:07;12.80;99.90
30628;DHT22;17394;50.890;4.724;2023-03-23T03:19:17;12.80;99.90
30628;DHT22;17394;50.890;4.724;2023-03-23T03:21:45;12.80;99.90
30628;DHT22;17394;50.890;4.724;2023-03-23T03:24:12;12.80;99.90
30628;DHT22;17394;50.890;4.724;2023-03-23T03:26:46;12.80;99.90
30628;DHT22;17394;50.890;4.724;2023-03-23T03:29:16;12.70;99.90
30628;DHT22;17394;50.890;4.724;2023-03-23T03:31:42;12.80;99.90
30628;DHT22;17394;50.890;4.724;2023-03-23T03:34:10;12.80;99.90
30628;DHT22;17394;50.890;4.724;2023-03-23T03:36:36;12.80;99.90
30628;DHT22;17394;50.890;4.724;2023-03-23T03:39:04;12.70;99.90
30628;DHT22;17394;50.890;4.724;2023-03-23T03:41:31;12.70;99.90
30628;DHT22;17394;50.890;4.724;2023-03-23T03:43:56;12.70;99.90
30628;DHT22;17394;50.890;4.724;2023-03-23T03:46:22;12.70;99.90
30628;DHT22;17394;50.890;4.724;2023-03-23T03:48:52;12.70;99.90
30628;DHT22;17394;50.890;4.724;2023-03-23T03:51:18;12.70;99.90
30628;DHT22;17394;50.890;4.724;2023-03-23T03:53:43;12.70;99.90
30628;DHT22;17394;50.890;4.724;2023-03-23T03:56:09;12.70;99.90
30628;DHT22;17394;50.890;4.724;2023-03-23T03:58:35;12.80;99.90
30628;DHT22;17394;50.890;4.724;2023-03-23T04:01:02;12.70;99.90
30628;DHT22;17394;50.890;4.724;2023-03-23T04:03:28;12.80;99.90
30628;DHT22;17394;50.890;4.724;2023-03-23T04:05:54;12.80;99.90
30628;DHT22;17394;50.890;4.724;2023-03-23T04:08:21;12.70;99.90
30628;DHT22;17394;50.890;4.724;2023-03-23T04:10:47;12.70;99.90
30628;DHT22;17394;50.890;4.724;2023-03-23T04:13:13;12.80;99.90
30628;DHT22;17394;50.890;4.724;2023-03-23T04:15:39;12.70;99.90
30628;DHT22;17394;50.890;4.724;2023-03-23T04:18:05;12.70;99.90
30628;DHT22;17394;50.890;4.724;2023-03-23T04:20:31;12.60;99.90
30628;DHT22;17394;50.890;4.724;2023-03-23T04:22:56;12.60;99.90
30628;DHT22;17394;50.890;4.724;2023-03-23T04:25:22;12.60;99.90
30628;DHT22;17394;50.890;4.724;2023-03-23T04:27:49;12.50;99.90
30628;DHT22;17394;50.890;4.724;2023-03-23T04:30:21;12.50;99.90
30628;DHT22;17394;50.890;4.724;2023-03-23T04:32:47;12.50;99.90
30628;DHT22;17394;50.890;4.724;2023-03-23T04:35:16;12.50;99.90
30628;DHT22;17394;50.890;4.724;2023-03-23T04:37:41;12.60;99.90
30628;DHT22;17394;50.890;4.724;2023-03-23T04:40:08;12.50;99.90
30628;DHT22;17394;50.890;4.724;2023-03-23T04:42:40;12.50;99.90
30628;DHT22;17394;50.890;4.724;2023-03-23T04:45:07;12.50;99.90
30628;DHT22;17394;50.890;4.724;2023-03-23T04:47:34;12.50;99.90
30628;DHT22;17394;50.890;4.724;2023-03-23T04:50:05;12.50;99.90
30628;DHT22;17394;50.890;4.724;2023-03-23T04:52:31;12.50;99.90
30628;DHT22;17394;50.890;4.724;2023-03-23T04:54:57;12.60;99.90
30628;DHT22;17394;50.890;4.724;2023-03-23T04:57:23;12.60;99.90
30628;DHT22;17394;50.890;4.724;2023-03-23T04:59:50;12.60;99.90
30628;DHT22;17394;50.890;4.724;2023-03-23T05:02:16;12.60;99.90
30628;DHT22;17394;50.890;4.724;2023-03-23T05:04:42;12.60;99.90
30628;DHT22;17394;50.890;4.724;2023-03-23T05:07:08;12.60;99.90
30628;DHT22;17394;50.890;4.724;2023-03-23T05:09:34;12.60;99.90
30628;DHT22;17394;50.890;4.724;2023-03-23T05:12:06;12.60;99.90
30628;DHT22;17394;50.890;4.724;2023-03-23T05:14:32;12.60;99.90
30628;DHT22;17394;50.890;4.724;2023-03-23T05:16:58;12.60;99.90
30628;DHT22;17394;50.890;4.724;2023-03-23T05:19:24;12.50;99.90
30628;DHT22;17394;50.890;4.724;2023-03-23T05:21:53;12.40;99.90
30628;DHT22;17394;50.890;4.724;2023-03-23T05:24:19;12.40;99.90
30628;DHT22;17394;50.890;4.724;2023-03-23T05:26:45;12.40;99.90
30628;DHT22;17394;50.890;4.724;2023-03-23T05:29:14;12.30;99.90
30628;DHT22;17394;50.890;4.724;2023-03-23T05:31:39;12.30;99.90
30628;DHT22;17394;50.890;4.724;2023-03-23T05:34:05;12.20;99.90
30628;DHT22;17394;50.890;4.724;2023-03-23T05:36:31;12.20;99.90
30628;DHT22;17394;50.890;4.724;2023-03-23T05:38:56;12.20;99.90
30628;DHT22;17394;50.890;4.724;2023-03-23T05:41:25;12.20;99.90
30628;DHT22;17394;50.890;4.724;2023-03-23T05:43:51;12.20;99.90
30628;DHT22;17394;50.890;4.724;2023-03-23T05:46:16;12.20;99.90
30628;DHT22;17394;50.890;4.724;2023-03-23T05:48:43;12.20;99.90
30628;DHT22;17394;50.890;4.724;2023-03-23T05:51:09;12.20;99.90
30628;DHT22;17394;50.890;4.724;2023-03-23T05:53:35;12.20;99.90
30628;DHT22;17394;50.890;4.724;2023-03-23T05:56:01;12.20;99.90
30628;DHT22;17394;50.890;4.724;2023-03-23T05:58:26;12.20;99.90
30628;DHT22;17394;50.890;4.724;2023-03-23T06:00:52;12.20;99.90
30628;DHT22;17394;50.890;4.724;2023-03-23T06:03:18;12.20;99.90
30628;DHT22;17394;50.890;4.724;2023-03-23T06:05:45;12.30;99.90
30628;DHT22;17394;50.890;4.724;2023-03-23T06:08:11;12.30;99.90
30628;DHT22;17394;50.890;4.724;2023-03-23T06:10:36;12.30;99.90
30628;DHT22;17394;50.890;4.724;2023-03-23T06:13:03;12.30;99.90
30628;DHT22;17394;50.890;4.724;2023-03-23T06:15:28;12.30;99.90
30628;DHT22;17394;50.890;4.724;2023-03-23T06:18:00;12.40;99.90
30628;DHT22;17394;50.890;4.724;2023-03-23T06:20:26;12.40;99.90
30628;DHT22;17394;50.890;4.724;2023-03-23T06:22:51;12.40;99.90
30628;DHT22;17394;50.890;4.724;2023-03-23T06:25:17;12.40;99.90
30628;DHT22;17394;50.890;4.724;2023-03-23T06:27:43;12.40;99.90
30628;DHT22;17394;50.890;4.724;2023-03-23T06:30:12;12.40;99.90
30628;DHT22;17394;50.890;4.724;2023-03-23T06:32:40;12.40;99.90
30628;DHT22;17394;50.890;4.724;2023-03-23T06:35:06;12.40;99.90
30628;DHT22;17394;50.890;4.724;2023-03-23T06:37:34;12.40;99.90
30628;DHT22;17394;50.890;4.724;2023-03-23T06:40:00;12.50;99.90
30628;DHT22;17394;50.890;4.724;2023-03-23T06:42:26;12.50;99.90
30628;DHT22;17394;50.890;4.724;2023-03-23T06:44:52;12.50;99.90
30628;DHT22;17394;50.890;4.724;2023-03-23T06:47:17;12.50;99.90
30628;DHT22;17394;50.890;4.724;2023-03-23T06:49:43;12.60;99.90
30628;DHT22;17394;50.890;4.724;2023-03-23T06:52:09;12.60;99.90
30628;DHT22;17394;50.890;4.724;2023-03-23T06:54:34;12.60;99.90
30628;DHT22;17394;50.890;4.724;2023-03-23T06:57:00;12.60;99.90
30628;DHT22;17394;50.890;4.724;2023-03-23T06:59:26;12.70;99.90
30628;DHT22;17394;50.890;4.724;2023-03-23T07:01:52;12.70;99.90
30628;DHT22;17394;50.890;4.724;2023-03-23T07:04:18;12.70;99.90
30628;DHT22;17394;50.890;4.724;2023-03-23T07:06:44;12.80;99.90
30628;DHT22;17394;50.890;4.724;2023-03-23T07:09:09;12.70;99.90
30628;DHT22;17394;50.890;4.724;2023-03-23T07:11:35;12.70;99.90
30628;DHT22;17394;50.890;4.724;2023-03-23T07:14:01;12.70;99.90
30628;DHT22;17394;50.890;4.724;2023-03-23T07:16:27;12.70;99.90
30628;DHT22;17394;50.890;4.724;2023-03-23T07:18:53;12.60;99.90
30628;DHT22;17394;50.890;4.724;2023-03-23T07:21:18;12.40;99.90
30628;DHT22;17394;50.890;4.724;2023-03-23T07:23:44;12.20;99.90
30628;DHT22;17394;50.890;4.724;2023-03-23T07:26:12;12.00;99.90
30628;DHT22;17394;50.890;4.724;2023-03-23T07:28:38;11.80;99.90
30628;DHT22;17394;50.890;4.724;2023-03-23T07:31:05;11.80;99.90
30628;DHT22;17394;50.890;4.724;2023-03-23T07:33:32;11.70;99.90
30628;DHT22;17394;50.890;4.724;2023-03-23T07:35:58;11.60;99.90
30628;DHT22;17394;50.890;4.724;2023-03-23T07:38:25;11.50;99.90
30628;DHT22;17394;50.890;4.724;2023-03-23T07:40:53;11.10;99.90
30628;DHT22;17394;50.890;4.724;2023-03-23T07:43:18;10.80;99.90
30628;DHT22;17394;50.890;4.724;2023-03-23T07:45:45;10.50;99.90
30628;DHT22;17394;50.890;4.724;2023-03-23T07:48:11;10.30;99.90
30628;DHT22;17394;50.890;4.724;2023-03-23T07:50:37;10.20;99.90
30628;DHT22;17394;50.890;4.724;2023-03-23T07:53:03;10.10;99.90
30628;DHT22;17394;50.890;4.724;2023-03-23T07:55:29;10.00;99.90
30628;DHT22;17394;50.890;4.724;2023-03-23T07:57:55;9.90;99.90
30628;DHT22;17394;50.890;4.724;2023-03-23T08:00:21;9.80;99.90
30628;DHT22;17394;50.890;4.724;2023-03-23T08:02:52;9.70;99.90
30628;DHT22;17394;50.890;4.724;2023-03-23T08:05:19;9.70;99.90
30628;DHT22;17394;50.890;4.724;2023-03-23T08:07:46;9.70;99.90
30628;DHT22;17394;50.890;4.724;2023-03-23T08:10:12;9.70;99.90
30628;DHT22;17394;50.890;4.724;2023-03-23T08:12:39;9.70;99.90
30628;DHT22;17394;50.890;4.724;2023-03-23T08:15:05;9.80;99.90
30628;DHT22;17394;50.890;4.724;2023-03-23T08:17:32;9.90;99.90
30628;DHT22;17394;50.890;4.724;2023-03-23T08:19:58;10.00;99.90
30628;DHT22;17394;50.890;4.724;2023-03-23T08:22:24;10.10;99.90
30628;DHT22;17394;50.890;4.724;2023-03-23T08:24:50;10.20;99.90
30628;DHT22;17394;50.890;4.724;2023-03-23T08:27:15;10.30;99.90
30628;DHT22;17394;50.890;4.724;2023-03-23T08:29:43;10.40;99.90
30628;DHT22;17394;50.890;4.724;2023-03-23T08:32:09;10.50;99.90
30628;DHT22;17394;50.890;4.724;2023-03-23T08:34:35;10.60;99.90
30628;DHT22;17394;50.890;4.724;2023-03-23T08:37:00;10.70;99.90
30628;DHT22;17394;50.890;4.724;2023-03-23T08:39:26;10.80;99.90
30628;DHT22;17394;50.890;4.724;2023-03-23T08:41:53;10.90;99.90
30628;DHT22;17394;50.890;4.724;2023-03-23T08:44:19;11.00;99.90
30628;DHT22;17394;50.890;4.724;2023-03-23T08:46:44;11.10;99.90
30628;DHT22;17394;50.890;4.724;2023-03-23T08:49:10;11.10;99.90
30628;DHT22;17394;50.890;4.724;2023-03-23T08:51:36;11.00;99.90
30628;DHT22;17394;50.890;4.724;2023-03-23T08:54:02;10.90;99.90
30628;DHT22;17394;50.890;4.724;2023-03-23T08:56:28;10.80;99.90
30628;DHT22;17394;50.890;4.724;2023-03-23T08:58:54;10.70;99.90
30628;DHT22;17394;50.890;4.724;2023-03-23T09:01:20;10.60;99.90
30628;DHT22;17394;50.890;4.724;2023-03-23T09:03:45;10.60;99.90
30628;DHT22;17394;50.890;4.724;2023-03-23T09:06:11;10.60;99.90
30628;DHT22;17394;50.890;4.724;2023-03-23T09:08:38;10.60;99.90
30628;DHT22;17394;50.890;4.724;2023-03-23T09:11:05;10.60;99.90
30628;DHT22;17394;50.890;4.724;2023-03-23T09:13:32;10.70;99.90
30628;DHT22;17394;50.890;4.724;2023-03-23T09:15:58;10.70;99.90
30628;DHT22;17394;50.890;4.724;2023-03-23T09:18:24;10.80;99.90
30628;DHT22;17394;50.890;4.724;2023-03-23T09:20:50;10.80;99.90
30628;DHT22;17394;50.890;4.724;2023-03-23T09:23:16;10.80;99.90
30628;DHT22;17394;50.890;4.724;2023-03-23T09:25:42;10.80;99.90
30628;DHT22;17394;50.890;4.724;2023-03-23T09:28:08;10.70;99.90
30628;DHT22;17394;50.890;4.724;2023-03-23T09:30:34;10.70;99.90
30628;DHT22;17394;50.890;4.724;2023-03-23T09:33:02;10.70;99.90
30628;DHT22;17394;50.890;4.724;2023-03-23T09:35:28;10.60;99.90
30628;DHT22;17394;50.890;4.724;2023-03-23T09:37:54;10.60;99.90
30628;DHT22;17394;50.890;4.724;2023-03-23T09:40:21;10.80;99.90
30628;DHT22;17394;50.890;4.724;2023-03-23T09:50:39;11.10;99.90
30628;DHT22;17394;50.890;4.724;2023-03-23T09:53:14;11.20;99.90
30628;DHT22;17394;50.890;4.724;2023-03-23T09:55:41;11.20;99.90
30628;DHT22;17394;50.890;4.724;2023-03-23T09:58:09;11.40;99.90
30628;DHT22;17394;50.890;4.724;2023-03-23T10:00:41;11.50;99.90
30628;DHT22;17394;50.890;4.724;2023-03-23T10:03:26;11.60;99.90
30628;DHT22;17394;50.890;4.724;2023-03-23T10:05:53;11.70;99.90
30628;DHT22;17394;50.890;4.724;2023-03-23T10:13:14;12.50;99.90
30628;DHT22;17394;50.890;4.724;2023-03-23T10:15:42;12.70;99.90
30628;DHT22;17394;50.890;4.724;2023-03-23T10:20:47;12.90;99.90
30628;DHT22;17394;50.890;4.724;2023-03-23T10:25:45;13.20;99.90
30628;DHT22;17394;50.890;4.724;2023-03-23T10:28:13;13.30;99.90
30628;DHT22;17394;50.890;4.724;2023-03-23T10:30:41;13.50;99.90
30628;DHT22;17394;50.890;4.724;2023-03-23T10:33:18;13.60;99.90
30628;DHT22;17394;50.890;4.724;2023-03-23T10:35:50;13.70;99.90
30628;DHT22;17394;50.890;4.724;2023-03-23T10:41:11;14.00;99.90
30628;DHT22;17394;50.890;4.724;2023-03-23T10:43:38;14.10;99.90
30628;DHT22;17394;50.890;4.724;2023-03-23T10:48:43;14.40;99.90
30628;DHT22;17394;50.890;4.724;2023-03-23T10:51:10;14.50;99.90
30628;DHT22;17394;50.890;4.724;2023-03-23T10:53:38;14.60;99.90
30628;DHT22;17394;50.890;4.724;2023-03-23T10:56:05;14.80;99.90
30628;DHT22;17394;50.890;4.724;2023-03-23T10:58:32;15.00;99.90
30628;DHT22;17394;50.890;4.724;2023-03-23T11:00:59;15.20;99.90
30628;DHT22;17394;50.890;4.724;2023-03-23T11:06:01;15.60;99.90
30628;DHT22;17394;50.890;4.724;2023-03-23T11:08:29;15.80;99.90
30628;DHT22;17394;50.890;4.724;2023-03-23T11:11:06;16.00;99.90
30628;DHT22;17394;50.890;4.724;2023-03-23T11:13:32;16.10;99.90
30628;DHT22;17394;50.890;4.724;2023-03-23T11:15:59;16.10;99.90
30628;DHT22;17394;50.890;4.724;2023-03-23T11:18:27;16.00;99.90
30628;DHT22;17394;50.890;4.724;2023-03-23T11:20:59;16.00;99.90
30628;DHT22;17394;50.890;4.724;2023-03-23T11:28:25;16.00;99.90
30628;DHT22;17394;50.890;4.724;2023-03-23T11:30:55;15.80;99.90
30628;DHT22;17394;50.890;4.724;2023-03-23T11:33:22;15.60;99.90
30628;DHT22;17394;50.890;4.724;2023-03-23T11:35:50;15.50;99.90
30628;DHT22;17394;50.890;4.724;2023-03-23T11:38:18;15.60;99.90
30628;DHT22;17394;50.890;4.724;2023-03-23T11:40:47;15.50;99.90
30628;DHT22;17394;50.890;4.724;2023-03-23T11:43:14;15.40;99.90
30628;DHT22;17394;50.890;4.724;2023-03-23T11:45:56;15.30;99.90
30628;DHT22;17394;50.890;4.724;2023-03-23T11:50:57;15.30;99.90
30628;DHT22;17394;50.890;4.724;2023-03-23T11:53:42;15.40;99.90
30628;DHT22;17394;50.890;4.724;2023-03-23T11:58:54;15.70;99.90
30628;DHT22;17394;50.890;4.724;2023-03-23T12:01:32;15.80;99.90
30628;DHT22;17394;50.890;4.724;2023-03-23T12:14:38;16.00;99.90
30628;DHT22;17394;50.890;4.724;2023-03-23T12:27:31;16.70;99.90
30628;DHT22;17394;50.890;4.724;2023-03-23T12:30:02;16.80;99.90
30628;DHT22;17394;50.890;4.724;2023-03-23T12:37:35;16.80;99.90
30628;DHT22;17394;50.890;4.724;2023-03-23T12:42:39;16.80;99.90
30628;DHT22;17394;50.890;4.724;2023-03-23T12:50:05;16.80;99.90
30628;DHT22;17394;50.890;4.724;2023-03-23T12:55:30;17.00;99.90
30628;DHT22;17394;50.890;4.724;2023-03-23T13:03:17;17.00;99.90
30628;DHT22;17394;50.890;4.724;2023-03-23T13:05:46;16.90;99.90
30628;DHT22;17394;50.890;4.724;2023-03-23T13:08:29;16.90;99.90
30628;DHT22;17394;50.890;4.724;2023-03-23T13:10:57;16.80;99.90
30628;DHT22;17394;50.890;4.724;2023-03-23T13:16:11;16.30;99.90
30628;DHT22;17394;50.890;4.724;2023-03-23T13:24:27;17.10;99.90
30628;DHT22;17394;50.890;4.724;2023-03-23T13:26:53;17.30;99.90
30628;DHT22;17394;50.890;4.724;2023-03-23T13:29:26;17.40;99.90
30628;DHT22;17394;50.890;4.724;2023-03-23T13:32:03;17.40;99.90
30628;DHT22;17394;50.890;4.724;2023-03-23T13:34:30;17.40;99.90
30628;DHT22;17394;50.890;4.724;2023-03-23T13:37:00;17.40;99.90
30628;DHT22;17394;50.890;4.724;2023-03-23T13:44:25;17.20;99.90
30628;DHT22;17394;50.890;4.724;2023-03-23T13:46:56;17.30;99.90
30628;DHT22;17394;50.890;4.724;2023-03-23T13:49:23;17.20;99.90
30628;DHT22;17394;50.890;4.724;2023-03-23T13:54:24;16.80;99.90
30628;DHT22;17394;50.890;4.724;2023-03-23T13:56:56;16.80;99.90
30628;DHT22;17394;50.890;4.724;2023-03-23T14:01:54;16.60;99.90
30628;DHT22;17394;50.890;4.724;2023-03-23T14:04:21;16.60;99.90
30628;DHT22;17394;50.890;4.724;2023-03-23T14:06:51;16.70;99.90
30628;DHT22;17394;50.890;4.724;2023-03-23T14:12:03;16.70;99.90
30628;DHT22;17394;50.890;4.724;2023-03-23T14:14:39;16.60;99.90
30628;DHT22;17394;50.890;4.724;2023-03-23T14:17:16;16.50;99.90
30628;DHT22;17394;50.890;4.724;2023-03-23T14:19:42;16.40;99.90
30628;DHT22;17394;50.890;4.724;2023-03-23T14:22:21;15.80;99.90
30628;DHT22;17394;50.890;4.724;2023-03-23T14:24:47;15.10;99.90
30628;DHT22;17394;50.890;4.724;2023-03-23T14:27:15;14.50;99.90
30628;DHT22;17394;50.890;4.724;2023-03-23T14:29:41;14.30;99.90
30628;DHT22;17394;50.890;4.724;2023-03-23T14:32:09;14.20;99.90
30628;DHT22;17394;50.890;4.724;2023-03-23T14:34:36;14.20;99.90
30628;DHT22;17394;50.890;4.724;2023-03-23T14:37:02;14.00;99.90
30628;DHT22;17394;50.890;4.724;2023-03-23T14:39:29;14.00;99.90
30628;DHT22;17394;50.890;4.724;2023-03-23T14:42:06;14.00;99.90
30628;DHT22;17394;50.890;4.724;2023-03-23T14:44:35;14.00;99.90
30628;DHT22;17394;50.890;4.724;2023-03-23T14:47:03;13.90;99.90
30628;DHT22;17394;50.890;4.724;2023-03-23T14:49:30;14.00;99.90
30628;DHT22;17394;50.890;4.724;2023-03-23T14:51:57;14.10;99.90
30628;DHT22;17394;50.890;4.724;2023-03-23T14:54:28;14.20;99.90
30628;DHT22;17394;50.890;4.724;2023-03-23T14:56:54;14.20;99.90
30628;DHT22;17394;50.890;4.724;2023-03-23T14:59:20;14.20;99.90
30628;DHT22;17394;50.890;4.724;2023-03-23T15:01:47;14.10;99.90
30628;DHT22;17394;50.890;4.724;2023-03-23T15:04:15;14.00;99.90
30628;DHT22;17394;50.890;4.724;2023-03-23T15:06:43;13.90;99.90
30628;DHT22;17394;50.890;4.724;2023-03-23T15:09:15;13.70;99.90
30628;DHT22;17394;50.890;4.724;2023-03-23T15:11:49;13.70;99.90
30628;DHT22;17394;50.890;4.724;2023-03-23T15:14:20;13.80;99.90
30628;DHT22;17394;50.890;4.724;2023-03-23T15:16:48;13.90;99.90
30628;DHT22;17394;50.890;4.724;2023-03-23T15:19:20;13.90;99.90
30628;DHT22;17394;50.890;4.724;2023-03-23T15:24:20;14.20;99.90
30628;DHT22;17394;50.890;4.724;2023-03-23T15:26:46;14.30;99.90
30628;DHT22;17394;50.890;4.724;2023-03-23T15:29:21;14.20;99.90
30628;DHT22;17394;50.890;4.724;2023-03-23T15:31:53;14.20;99.90
30628;DHT22;17394;50.890;4.724;2023-03-23T15:34:23;14.20;99.90
30628;DHT22;17394;50.890;4.724;2023-03-23T15:37:35;14.20;99.90
30628;DHT22;17394;50.890;4.724;2023-03-23T15:39:39;14.20;99.90
30628;DHT22;17394;50.890;4.724;2023-03-23T15:42:05;14.30;99.90
30628;DHT22;17394;50.890;4.724;2023-03-23T15:44:32;14.40;99.90
30628;DHT22;17394;50.890;4.724;2023-03-23T15:47:16;14.40;99.90
30628;DHT22;17394;50.890;4.724;2023-03-23T15:49:43;14.40;99.90
30628;DHT22;17394;50.890;4.724;2023-03-23T15:52:10;14.40;99.90
30628;DHT22;17394;50.890;4.724;2023-03-23T15:54:36;14.50;99.90
30628;DHT22;17394;50.890;4.724;2023-03-23T15:57:02;14.40;99.90
30628;DHT22;17394;50.890;4.724;2023-03-23T15:59:31;14.50;99.90
30628;DHT22;17394;50.890;4.724;2023-03-23T16:01:57;14.40;99.90
30628;DHT22;17394;50.890;4.724;2023-03-23T16:04:22;14.40;99.90
30628;DHT22;17394;50.890;4.724;2023-03-23T16:06:49;14.30;99.90
30628;DHT22;17394;50.890;4.724;2023-03-23T16:09:19;14.20;99.90
30628;DHT22;17394;50.890;4.724;2023-03-23T16:11:45;14.20;99.90
30628;DHT22;17394;50.890;4.724;2023-03-23T16:14:11;14.10;99.90
30628;DHT22;17394;50.890;4.724;2023-03-23T16:16:38;14.00;99.90
30628;DHT22;17394;50.890;4.724;2023-03-23T16:19:05;14.00;99.90
30628;DHT22;17394;50.890;4.724;2023-03-23T16:21:31;14.00;99.90
30628;DHT22;17394;50.890;4.724;2023-03-23T16:23:57;14.00;99.90
30628;DHT22;17394;50.890;4.724;2023-03-23T16:26:23;14.10;99.90
30628;DHT22;17394;50.890;4.724;2023-03-23T16:28:48;14.20;99.90
30628;DHT22;17394;50.890;4.724;2023-03-23T16:31:14;14.30;99.90
30628;DHT22;17394;50.890;4.724;2023-03-23T16:33:40;14.40;99.90
30628;DHT22;17394;50.890;4.724;2023-03-23T16:36:06;14.40;99.90
30628;DHT22;17394;50.890;4.724;2023-03-23T16:38:31;14.40;99.90
30628;DHT22;17394;50.890;4.724;2023-03-23T16:40:57;14.40;99.90
30628;DHT22;17394;50.890;4.724;2023-03-23T16:43:23;14.40;99.90
30628;DHT22;17394;50.890;4.724;2023-03-23T16:45:49;14.40;99.90
30628;DHT22;17394;50.890;4.724;2023-03-23T16:48:15;14.50;99.90
30628;DHT22;17394;50.890;4.724;2023-03-23T16:50:41;14.50;99.90
30628;DHT22;17394;50.890;4.724;2023-03-23T16:53:07;14.50;99.90
30628;DHT22;17394;50.890;4.724;2023-03-23T16:55:33;14.50;99.90
30628;DHT22;17394;50.890;4.724;2023-03-23T16:57:59;14.50;99.90
30628;DHT22;17394;50.890;4.724;2023-03-23T17:00:24;14.40;99.90
30628;DHT22;17394;50.890;4.724;2023-03-23T17:02:52;14.30;99.90
30628;DHT22;17394;50.890;4.724;2023-03-23T17:05:18;14.30;99.90
30628;DHT22;17394;50.890;4.724;2023-03-23T17:07:45;14.20;99.90
30628;DHT22;17394;50.890;4.724;2023-03-23T17:10:11;14.10;99.90
30628;DHT22;17394;50.890;4.724;2023-03-23T17:12:37;13.90;99.90
30628;DHT22;17394;50.890;4.724;2023-03-23T17:15:03;14.00;99.90
30628;DHT22;17394;50.890;4.724;2023-03-23T17:17:29;13.90;99.90
30628;DHT22;17394;50.890;4.724;2023-03-23T17:19:55;13.90;99.90
30628;DHT22;17394;50.890;4.724;2023-03-23T17:22:21;14.10;99.90
30628;DHT22;17394;50.890;4.724;2023-03-23T17:24:46;13.90;99.90
30628;DHT22;17394;50.890;4.724;2023-03-23T17:27:16;13.90;99.90
30628;DHT22;17394;50.890;4.724;2023-03-23T17:29:42;13.90;99.90
30628;DHT22;17394;50.890;4.724;2023-03-23T17:32:08;13.80;99.90
30628;DHT22;17394;50.890;4.724;2023-03-23T17:34:34;13.80;99.90
30628;DHT22;17394;50.890;4.724;2023-03-23T17:36:59;13.70;99.90